createdAt,value
2022-12-07T00:01:07.606Z,5.90
2022-12-07T00:03:35.771Z,3.15
2022-12-07T00:06:04.831Z,6.93
2022-12-07T00:08:32.917Z,7.00
2022-12-07T00:11:05.018Z,6.07
2022-12-07T00:13:33.451Z,9.13
2022-12-07T00:16:03.095Z,6.28
2022-12-07T00:18:31.114Z,4.97
2022-12-07T00:21:02.239Z,9.25
2022-12-07T00:23:30.104Z,8.38
2022-12-07T00:25:57.995Z,9.15
2022-12-07T00:28:27.231Z,9.32
2022-12-07T00:31:02.264Z,7.47
2022-12-07T00:33:30.234Z,8.88
2022-12-07T00:35:58.547Z,7.93
2022-12-07T00:38:26.912Z,11.30
2022-12-07T00:40:58.857Z,9.88
2022-12-07T00:43:28.603Z,8.30
2022-12-07T00:45:56.927Z,9.63
2022-12-07T00:48:25.206Z,8.13
2022-12-07T00:50:53.154Z,8.40
2022-12-07T00:53:21.347Z,10.90
2022-12-07T00:55:49.496Z,9.85
2022-12-07T00:58:17.433Z,8.18
2022-12-07T01:00:46.754Z,10.55
2022-12-07T01:03:16.073Z,8.32
2022-12-07T01:05:51.762Z,8.82
2022-12-07T01:08:19.769Z,10.13
2022-12-07T01:10:47.922Z,7.97
2022-12-07T01:13:15.889Z,8.15
2022-12-07T01:15:44.041Z,8.00
2022-12-07T01:18:13.472Z,9.95
2022-12-07T01:20:41.324Z,7.65
2022-12-07T01:23:09.879Z,8.40
2022-12-07T01:25:37.788Z,8.80
2022-12-07T01:28:06.047Z,9.43
2022-12-07T01:30:34.057Z,8.45
2022-12-07T01:33:02.033Z,7.93
2022-12-07T01:35:31.282Z,9.90
2022-12-07T01:37:59.122Z,10.30
2022-12-07T01:40:27.044Z,9.48
2022-12-07T01:42:54.910Z,7.28
2022-12-07T01:45:47.099Z,8.02
2022-12-07T01:48:17.233Z,10.70
2022-12-07T01:50:47.646Z,8.82
2022-12-07T01:53:15.763Z,7.25
2022-12-07T01:55:46.777Z,7.35
2022-12-07T01:58:15.187Z,7.80
2022-12-07T02:00:43.262Z,9.23
2022-12-07T02:03:14.512Z,11.75
2022-12-07T02:05:43.063Z,9.05
2022-12-07T02:08:13.219Z,9.05
2022-12-07T02:10:41.522Z,10.35
2022-12-07T02:13:13.759Z,9.27
2022-12-07T02:15:49.593Z,7.95
2022-12-07T02:18:21.097Z,10.02
2022-12-07T02:20:55.865Z,10.40
2022-12-07T02:23:52.053Z,10.82
2022-12-07T02:26:59.627Z,11.55
2022-12-07T02:29:30.205Z,9.85
2022-12-07T02:32:04.142Z,9.70
2022-12-07T02:34:38.976Z,7.53
2022-12-07T02:37:12.901Z,9.00
2022-12-07T02:39:43.592Z,10.30
2022-12-07T02:42:16.099Z,8.60
2022-12-07T02:44:46.668Z,9.18
2022-12-07T02:47:16.963Z,9.15
2022-12-07T02:49:45.049Z,10.10
2022-12-07T02:52:12.938Z,10.23
2022-12-07T02:54:40.862Z,10.00
2022-12-07T02:57:18.742Z,14.35
2022-12-07T02:59:57.402Z,14.50
2022-12-07T03:02:28.521Z,11.93
2022-12-07T03:05:04.654Z,13.93
2022-12-07T03:07:36.652Z,13.73
2022-12-07T03:10:09.312Z,16.07
2022-12-07T03:12:44.091Z,13.75
2022-12-07T03:15:16.831Z,13.48
2022-12-07T03:17:46.628Z,13.40
2022-12-07T03:20:16.107Z,15.52
2022-12-07T03:22:45.208Z,17.95
2022-12-07T03:25:14.060Z,12.50
2022-12-07T03:27:47.047Z,15.13
2022-12-07T03:30:20.072Z,16.23
2022-12-07T03:35:20.525Z,15.48
2022-12-07T03:37:51.839Z,14.18
2022-12-07T03:40:24.694Z,18.00
2022-12-07T03:42:53.910Z,16.35
2022-12-07T03:45:26.863Z,16.33
2022-12-07T03:50:29.137Z,15.73
2022-12-07T03:53:00.572Z,18.13
2022-12-07T03:55:31.165Z,18.25
2022-12-07T03:58:02.325Z,15.80
2022-12-07T04:00:31.754Z,21.50
2022-12-07T04:03:00.219Z,23.75
2022-12-07T04:05:28.329Z,27.10
2022-12-07T04:07:56.444Z,25.38
2022-12-07T04:10:24.331Z,22.17
2022-12-07T04:12:52.158Z,23.67
2022-12-07T04:15:20.231Z,21.65
2022-12-07T04:17:49.517Z,26.17
2022-12-07T04:20:17.750Z,25.42
2022-12-07T04:22:45.647Z,23.73
2022-12-07T04:25:13.495Z,22.00
2022-12-07T04:27:41.386Z,23.45
2022-12-07T04:30:10.097Z,28.02
2022-12-07T04:32:37.966Z,23.25
2022-12-07T04:35:08.037Z,25.13
2022-12-07T04:37:35.912Z,21.95
2022-12-07T04:40:04.450Z,25.20
2022-12-07T04:42:32.499Z,24.52
2022-12-07T04:45:18.737Z,23.90
2022-12-07T04:47:46.668Z,28.48
2022-12-07T04:50:14.464Z,26.60
2022-12-07T04:52:42.372Z,19.33
2022-12-07T04:55:10.518Z,23.75
2022-12-07T04:57:38.371Z,24.25
2022-12-07T05:00:07.565Z,31.35
2022-12-07T05:02:36.847Z,22.88
2022-12-07T05:05:05.117Z,26.73
2022-12-07T05:07:33.012Z,25.02
2022-12-07T05:10:01.238Z,27.90
2022-12-07T05:12:29.252Z,24.70
2022-12-07T05:14:57.222Z,30.98
2022-12-07T05:17:25.378Z,28.40
2022-12-07T05:19:54.596Z,29.20
2022-12-07T05:22:22.600Z,26.63
2022-12-07T05:24:50.422Z,25.60
2022-12-07T05:27:18.334Z,20.13
2022-12-07T05:29:46.188Z,26.55
2022-12-07T05:32:14.050Z,26.98
2022-12-07T05:34:41.880Z,29.67
2022-12-07T05:37:11.094Z,31.52
2022-12-07T05:39:41.788Z,30.75
2022-12-07T05:42:17.493Z,25.58
2022-12-07T05:44:47.013Z,28.25
2022-12-07T05:47:15.833Z,31.42
2022-12-07T05:49:43.796Z,31.83
2022-12-07T05:52:12.948Z,25.35
2022-12-07T05:54:40.814Z,27.42
2022-12-07T05:57:08.662Z,34.60
2022-12-07T05:59:35.533Z,34.00
2022-12-07T06:02:05.557Z,33.78
2022-12-07T06:04:36.475Z,41.58
2022-12-07T06:07:05.364Z,30.48
2022-12-07T06:09:35.199Z,31.52
2022-12-07T06:12:20.900Z,25.60
2022-12-07T06:14:48.793Z,30.48
2022-12-07T06:17:17.322Z,31.83
2022-12-07T06:19:45.442Z,24.13
2022-12-07T06:22:14.200Z,26.15
2022-12-07T06:24:44.411Z,21.58
2022-12-07T06:27:12.501Z,24.60
2022-12-07T06:29:40.346Z,26.52
2022-12-07T06:32:08.309Z,27.77
2022-12-07T06:34:36.287Z,23.85
2022-12-07T06:37:04.797Z,23.48
2022-12-07T06:39:33.046Z,20.73
2022-12-07T06:42:02.301Z,22.02
2022-12-07T06:44:30.309Z,29.63
2022-12-07T06:47:18.921Z,21.27
2022-12-07T06:49:46.388Z,15.65
2022-12-07T06:52:14.281Z,19.15
2022-12-07T06:54:42.205Z,21.98
2022-12-07T06:57:11.454Z,23.00
2022-12-07T06:59:39.311Z,23.00
2022-12-07T07:02:07.198Z,21.73
2022-12-07T07:04:35.222Z,20.35
2022-12-07T07:07:03.096Z,19.23
2022-12-07T07:09:30.922Z,21.25
2022-12-07T07:11:58.797Z,14.63
2022-12-07T07:14:28.159Z,15.02
2022-12-07T07:16:56.129Z,22.65
2022-12-07T07:19:23.997Z,21.25
2022-12-07T07:21:51.934Z,19.30
2022-12-07T07:24:19.810Z,16.60
2022-12-07T07:26:47.637Z,16.50
2022-12-07T07:29:15.728Z,16.10
2022-12-07T07:36:21.784Z,13.82
2022-12-07T07:38:52.133Z,16.33
2022-12-07T07:41:20.102Z,12.60
2022-12-07T07:43:47.927Z,14.38
2022-12-07T07:46:15.752Z,16.23
2022-12-07T07:48:43.640Z,15.50
2022-12-07T07:51:11.460Z,18.33
2022-12-07T07:53:39.256Z,16.02
2022-12-07T07:56:08.664Z,14.52
2022-12-07T07:58:36.797Z,13.75
2022-12-07T08:01:08.809Z,13.98
2022-12-07T08:03:36.723Z,14.10
2022-12-07T08:06:04.716Z,9.80
2022-12-07T08:08:32.783Z,7.97
2022-12-07T08:11:02.251Z,10.45
2022-12-07T08:13:32.055Z,23.27
2022-12-07T08:16:00.502Z,43.10
2022-12-07T08:18:28.417Z,19.02
2022-12-07T08:21:01.794Z,8.98
2022-12-07T08:23:38.984Z,9.55
2022-12-07T08:26:09.715Z,48.33
2022-12-07T08:28:39.302Z,12.02
2022-12-07T08:31:09.403Z,7.90
2022-12-07T08:33:38.033Z,12.13
2022-12-07T08:36:08.118Z,7.65
2022-12-07T08:38:36.374Z,10.02
2022-12-07T08:41:04.290Z,9.65
2022-12-07T08:43:32.528Z,6.25
2022-12-07T08:46:08.297Z,3.33
2022-12-07T08:48:36.646Z,5.57
2022-12-07T08:51:04.963Z,5.18
2022-12-07T08:53:33.277Z,6.25
2022-12-07T08:56:01.325Z,5.97
2022-12-07T08:58:29.275Z,5.10
2022-12-07T09:00:57.110Z,6.10
2022-12-07T09:03:26.303Z,82.20
2022-12-07T09:05:54.969Z,42.75
2022-12-07T09:08:24.080Z,7.00
2022-12-07T09:10:51.973Z,4.07
2022-12-07T09:13:19.841Z,14.98
2022-12-07T09:15:47.714Z,3.95
2022-12-07T09:18:15.609Z,9.88
2022-12-07T09:20:44.861Z,13.68
2022-12-07T09:23:12.772Z,26.60
2022-12-07T09:25:40.620Z,5.53
2022-12-07T09:28:08.485Z,24.08
2022-12-07T09:30:52.849Z,6.70
2022-12-07T09:33:24.371Z,8.20
2022-12-07T09:35:54.109Z,9.05
2022-12-07T09:38:22.929Z,9.88
2022-12-07T09:40:50.841Z,11.50
2022-12-07T09:43:20.799Z,6.63
2022-12-07T09:45:49.702Z,12.52
2022-12-07T09:48:20.726Z,7.65
2022-12-07T09:50:49.318Z,8.02
2022-12-07T09:53:23.156Z,9.63
2022-12-07T09:55:51.064Z,7.65
2022-12-07T09:58:22.030Z,8.10
2022-12-07T10:00:50.994Z,7.47
2022-12-07T10:03:19.340Z,6.00
2022-12-07T10:05:49.368Z,14.32
2022-12-07T10:08:19.869Z,13.90
2022-12-07T10:10:52.837Z,6.63
2022-12-07T10:15:53.351Z,3.60
2022-12-07T10:18:31.217Z,9.45
2022-12-07T10:21:05.506Z,10.50
2022-12-07T10:23:34.723Z,6.65
2022-12-07T10:26:22.384Z,6.70
2022-12-07T10:28:50.696Z,2.85
2022-12-07T10:31:21.010Z,5.10
2022-12-07T10:33:53.842Z,9.32
2022-12-07T10:36:24.913Z,5.90
2022-12-07T10:38:55.808Z,5.47
2022-12-07T10:41:23.888Z,5.57
2022-12-07T10:43:54.437Z,6.68
2022-12-07T10:46:56.263Z,2.90
2022-12-07T10:49:55.808Z,3.75
2022-12-07T10:52:32.379Z,3.17
2022-12-07T10:55:11.085Z,5.15
2022-12-07T10:57:49.901Z,0.73
2022-12-07T11:00:20.682Z,8.23
2022-12-07T11:03:01.840Z,1.17
2022-12-07T11:05:31.953Z,0.80
2022-12-07T11:08:05.565Z,3.35
2022-12-07T11:10:41.195Z,0.82
2022-12-07T11:13:27.960Z,3.88
2022-12-07T11:16:06.831Z,2.78
2022-12-07T11:18:40.726Z,1.70
2022-12-07T11:21:12.116Z,2.05
2022-12-07T11:23:48.939Z,0.68
2022-12-07T11:26:26.184Z,1.55
2022-12-07T11:29:11.806Z,1.02
2022-12-07T11:31:50.427Z,3.92
2022-12-07T11:34:25.127Z,2.53
2022-12-07T11:36:56.420Z,1.27
2022-12-07T11:39:28.964Z,3.70
2022-12-07T11:42:03.630Z,2.53
2022-12-07T11:44:36.841Z,1.83
2022-12-07T11:47:09.482Z,3.05
2022-12-07T11:49:43.430Z,0.38
2022-12-07T11:52:20.368Z,1.83
2022-12-07T11:54:49.341Z,1.98
2022-12-07T11:57:24.927Z,0.73
2022-12-07T11:59:55.148Z,1.42
2022-12-07T12:02:26.693Z,0.60
2022-12-07T12:04:58.269Z,3.60
2022-12-07T12:10:21.386Z,3.00
2022-12-07T12:16:37.768Z,3.10
2022-12-07T12:19:13.884Z,1.27
2022-12-07T12:21:41.891Z,1.45
2022-12-07T12:24:14.977Z,0.60
2022-12-07T12:26:51.663Z,4.40
2022-12-07T12:29:28.628Z,3.05
2022-12-07T12:32:15.796Z,2.83
2022-12-07T12:35:00.548Z,10.93
2022-12-07T12:37:42.783Z,1.42
2022-12-07T12:40:53.227Z,1.13
2022-12-07T12:43:44.331Z,7.07
2022-12-07T12:46:45.107Z,32.22
2022-12-07T12:51:47.949Z,1.70
2022-12-07T12:54:17.808Z,4.32
2022-12-07T12:56:51.010Z,5.05
2022-12-07T12:59:28.847Z,2.67
2022-12-07T13:01:59.031Z,11.52
2022-12-07T13:04:49.964Z,1.20
2022-12-07T13:07:51.670Z,6.32
2022-12-07T13:10:41.777Z,10.48
2022-12-07T13:13:34.238Z,3.50
2022-12-07T13:16:40.912Z,3.72
2022-12-07T13:20:02.925Z,3.08
2022-12-07T13:22:42.893Z,3.45
2022-12-07T13:25:13.859Z,2.55
2022-12-07T13:27:43.426Z,3.70
2022-12-07T13:30:16.549Z,1.65
2022-12-07T13:32:44.557Z,2.35
2022-12-07T13:35:32.792Z,0.40
2022-12-07T13:38:04.238Z,2.83
2022-12-07T13:40:32.194Z,2.45
2022-12-07T13:43:01.004Z,1.90
2022-12-07T13:45:44.332Z,0.68
2022-12-07T13:48:17.521Z,2.28
2022-12-07T13:50:45.575Z,3.72
2022-12-07T13:53:16.371Z,1.75
2022-12-07T13:55:54.000Z,0.73
2022-12-07T13:58:22.642Z,1.27
2022-12-07T14:00:50.723Z,2.50
2022-12-07T14:03:29.278Z,2.15
2022-12-07T14:06:18.454Z,2.33
2022-12-07T14:08:47.936Z,0.75
2022-12-07T14:11:19.497Z,0.63
2022-12-07T14:13:54.292Z,3.33
2022-12-07T14:16:26.782Z,0.52
2022-12-07T14:18:55.103Z,0.40
2022-12-07T14:21:25.037Z,0.30
2022-12-07T14:24:18.309Z,1.40
2022-12-07T14:26:47.243Z,1.58
2022-12-07T14:29:23.155Z,3.65
2022-12-07T14:31:51.232Z,1.17
2022-12-07T14:34:19.175Z,0.57
2022-12-07T14:36:47.076Z,0.93
2022-12-07T14:39:16.321Z,0.32
2022-12-07T14:41:53.250Z,1.52
2022-12-07T14:44:25.818Z,1.65
2022-12-07T14:49:42.860Z,0.52
2022-12-07T14:55:05.470Z,3.15
2022-12-07T14:57:33.875Z,1.35
2022-12-07T15:00:01.909Z,0.50
2022-12-07T15:02:29.848Z,3.72
2022-12-07T15:04:57.783Z,0.88
2022-12-07T15:07:27.523Z,1.98
2022-12-07T15:09:55.935Z,3.15
2022-12-07T15:12:25.905Z,0.30
2022-12-07T15:14:53.876Z,0.50
2022-12-07T15:17:31.298Z,1.63
2022-12-07T15:20:00.129Z,0.88
2022-12-07T15:22:28.062Z,3.53
2022-12-07T15:24:55.914Z,2.08
2022-12-07T15:27:25.207Z,0.55
2022-12-07T15:29:54.730Z,2.08
2022-12-07T15:32:23.866Z,1.30
2022-12-07T15:34:52.063Z,0.52
2022-12-07T15:37:20.154Z,0.43
2022-12-07T15:39:48.019Z,1.10
2022-12-07T15:42:15.893Z,1.08
2022-12-07T15:45:02.779Z,0.60
2022-12-07T15:47:30.975Z,5.03
2022-12-07T15:49:58.907Z,3.13
2022-12-07T15:52:26.785Z,4.05
2022-12-07T15:54:54.813Z,0.43
2022-12-07T15:57:25.490Z,0.80
2022-12-07T15:59:55.126Z,3.97
2022-12-07T16:02:23.631Z,0.50
2022-12-07T16:04:52.137Z,0.40
2022-12-07T16:07:20.169Z,0.52
2022-12-07T16:09:48.433Z,4.43
2022-12-07T16:12:16.430Z,0.90
2022-12-07T16:14:44.562Z,0.38
2022-12-07T16:17:13.824Z,1.65
2022-12-07T16:19:41.898Z,0.43
2022-12-07T16:22:09.810Z,2.20
2022-12-07T16:24:37.648Z,1.23
2022-12-07T16:27:05.581Z,5.45
2022-12-07T16:29:33.431Z,1.15
2022-12-07T16:32:01.509Z,1.33
2022-12-07T16:34:30.781Z,2.85
2022-12-07T16:37:06.268Z,0.98
2022-12-07T16:39:35.203Z,0.77
2022-12-07T16:42:03.205Z,0.47
2022-12-07T16:44:31.588Z,0.77
2022-12-07T16:46:59.500Z,1.48
2022-12-07T16:49:27.493Z,3.35
2022-12-07T16:52:19.255Z,1.40
2022-12-07T16:54:44.731Z,0.82
2022-12-07T16:57:18.154Z,0.70
2022-12-07T16:59:49.934Z,2.67
2022-12-07T17:02:17.887Z,1.00
2022-12-07T17:04:45.993Z,3.13
2022-12-07T17:07:15.247Z,2.63
2022-12-07T17:09:43.247Z,1.17
2022-12-07T17:12:11.313Z,1.02
2022-12-07T17:14:56.978Z,2.05
2022-12-07T17:17:25.290Z,1.48
2022-12-07T17:19:53.543Z,1.80
2022-12-07T17:22:23.042Z,4.60
2022-12-07T17:24:51.143Z,0.98
2022-12-07T17:27:19.140Z,1.90
2022-12-07T17:29:47.053Z,0.95
2022-12-07T17:32:15.268Z,1.73
2022-12-07T17:34:43.506Z,6.07
2022-12-07T17:37:11.454Z,0.70
2022-12-07T17:39:40.924Z,0.73
2022-12-07T17:42:27.651Z,0.73
2022-12-07T17:44:55.583Z,2.88
2022-12-07T17:47:23.427Z,2.40
2022-12-07T17:49:51.317Z,0.35
2022-12-07T17:52:36.518Z,2.22
2022-12-07T17:55:07.002Z,0.40
2022-12-07T17:57:35.093Z,0.32
2022-12-07T18:00:03.321Z,0.55
2022-12-07T18:02:39.969Z,0.75
2022-12-07T18:05:08.860Z,0.85
2022-12-07T18:07:36.828Z,1.13
2022-12-07T18:10:09.172Z,1.90
2022-12-07T18:12:37.116Z,0.30
2022-12-07T18:15:05.996Z,0.35
2022-12-07T18:17:34.193Z,0.45
2022-12-07T18:20:02.051Z,0.25
2022-12-07T18:22:29.881Z,0.65
2022-12-07T18:24:57.749Z,1.80
2022-12-07T18:27:27.121Z,0.50
2022-12-07T18:29:55.770Z,2.05
2022-12-07T18:32:23.707Z,3.95
2022-12-07T18:34:51.648Z,0.82
2022-12-07T18:37:19.518Z,2.03
2022-12-07T18:39:47.388Z,2.47
2022-12-07T18:42:15.313Z,6.20
2022-12-07T18:44:44.776Z,0.80
2022-12-07T18:47:12.901Z,0.55
2022-12-07T18:49:41.103Z,2.42
2022-12-07T18:52:09.913Z,0.55
2022-12-07T18:54:37.877Z,1.58
2022-12-07T18:57:05.938Z,1.85
2022-12-07T18:59:49.658Z,0.60
2022-12-07T19:02:20.109Z,4.13
2022-12-07T19:04:48.160Z,0.45
2022-12-07T19:07:17.192Z,0.40
2022-12-07T19:09:45.315Z,2.45
2022-12-07T19:12:14.301Z,0.40
2022-12-07T19:14:42.749Z,0.57
2022-12-07T19:17:12.171Z,1.88
2022-12-07T19:19:42.984Z,0.52
2022-12-07T19:22:12.463Z,2.83
2022-12-07T19:24:40.694Z,0.82
2022-12-07T19:27:11.993Z,0.45
2022-12-07T19:29:39.917Z,1.98
2022-12-07T19:32:09.305Z,1.42
2022-12-07T19:34:37.613Z,0.63
2022-12-07T19:37:07.513Z,0.55
2022-12-07T19:39:35.468Z,2.67
2022-12-07T19:42:03.446Z,0.38
2022-12-07T19:44:33.956Z,4.15
2022-12-07T19:47:05.170Z,1.60
2022-12-07T19:49:35.089Z,0.90
2022-12-07T19:52:05.594Z,0.73
2022-12-07T19:54:35.453Z,0.40
2022-12-07T19:57:04.394Z,1.10
2022-12-07T19:59:32.813Z,2.60
2022-12-07T20:02:01.276Z,3.53
2022-12-07T20:04:32.511Z,1.30
2022-12-07T20:07:01.912Z,0.88
2022-12-07T20:09:29.797Z,2.03
2022-12-07T20:12:16.340Z,1.52
2022-12-07T20:14:44.380Z,1.15
2022-12-07T20:17:12.389Z,1.60
2022-12-07T20:19:40.718Z,1.60
2022-12-07T20:22:08.577Z,1.83
2022-12-07T20:24:36.723Z,1.67
2022-12-07T20:27:06.327Z,3.30
2022-12-07T20:29:34.691Z,3.55
2022-12-07T20:32:02.981Z,2.35
2022-12-07T20:34:30.918Z,1.90
2022-12-07T20:36:58.884Z,2.63
2022-12-07T20:39:26.778Z,3.53
2022-12-07T20:42:12.258Z,4.22
2022-12-07T20:44:41.679Z,3.97
2022-12-07T20:47:09.602Z,3.28
2022-12-07T20:49:37.469Z,2.33
2022-12-07T20:52:05.602Z,3.63
2022-12-07T20:54:33.399Z,2.45
2022-12-07T20:57:01.197Z,2.15
2022-12-07T20:59:29.047Z,4.22
2022-12-07T21:01:58.373Z,1.92
2022-12-07T21:04:26.360Z,2.00
2022-12-07T21:06:54.216Z,4.10
2022-12-07T21:09:26.836Z,2.50
2022-12-07T21:11:55.210Z,4.38
2022-12-07T21:14:23.616Z,5.32
2022-12-07T21:16:51.481Z,3.58
2022-12-07T21:19:20.750Z,3.20
2022-12-07T21:21:48.640Z,3.33
2022-12-07T21:24:16.482Z,3.83
2022-12-07T21:26:44.353Z,3.53
2022-12-07T21:29:12.290Z,4.07
2022-12-07T21:36:27.722Z,4.43
2022-12-07T21:38:55.718Z,22.20
2022-12-07T21:41:24.868Z,1.17
2022-12-07T21:43:53.084Z,1.73
2022-12-07T21:46:29.583Z,3.45
2022-12-07T21:49:02.977Z,2.42
2022-12-07T21:51:32.400Z,3.83
2022-12-07T21:54:01.288Z,1.98
2022-12-07T21:56:30.704Z,1.52
2022-12-07T21:59:01.652Z,3.03
2022-12-07T22:01:31.241Z,1.98
2022-12-07T22:03:59.116Z,1.58
2022-12-07T22:06:27.714Z,3.13
2022-12-07T22:08:57.217Z,1.50
2022-12-07T22:16:25.909Z,1.88
2022-12-07T22:18:54.189Z,6.78
2022-12-07T22:21:22.713Z,3.88
2022-12-07T22:23:51.294Z,1.77
2022-12-07T22:26:24.615Z,4.28
2022-12-07T22:28:52.941Z,3.92
2022-12-07T22:31:23.212Z,5.40
2022-12-07T22:33:51.860Z,2.45
2022-12-07T22:36:19.694Z,1.45
2022-12-07T22:38:47.891Z,2.38
2022-12-07T22:41:19.815Z,2.15
2022-12-07T22:43:49.047Z,6.60
2022-12-07T22:51:26.537Z,1.73
2022-12-07T22:53:54.926Z,1.25
2022-12-07T22:56:23.643Z,2.60
2022-12-07T22:58:52.982Z,2.58
2022-12-07T23:01:22.035Z,3.40
2022-12-07T23:03:50.144Z,2.47
2022-12-07T23:06:19.905Z,5.18
2022-12-07T23:08:47.905Z,1.33
2022-12-07T23:11:37.590Z,4.65
2022-12-07T23:14:13.342Z,6.13
2022-12-07T23:16:41.376Z,2.22
2022-12-07T23:19:09.472Z,4.80
2022-12-07T23:21:38.549Z,6.78
2022-12-07T23:24:07.325Z,2.25
2022-12-07T23:31:27.205Z,4.13
2022-12-07T23:33:56.530Z,5.50
2022-12-07T23:36:25.956Z,2.50
2022-12-07T23:38:55.543Z,4.95
2022-12-07T23:41:24.866Z,4.00
2022-12-07T23:43:52.882Z,2.50
2022-12-07T23:46:23.217Z,8.38
2022-12-07T23:48:52.198Z,5.13
2022-12-07T23:51:22.101Z,4.93
2022-12-07T23:53:51.874Z,4.68
2022-12-07T23:56:21.393Z,3.00
2022-12-07T23:58:50.126Z,3.72
